sensor_id;sensor_type;location;lat;lon;timestamp;pressure;altitude;pressure_sealevel;temperature;humidity
74552;BME280;63025;55.472;38.432;2022-10-17T00:00:51;101545.56;;;3.42;75.04
74552;BME280;63025;55.472;38.432;2022-10-17T00:03:17;101550.59;;;3.45;74.96
74552;BME280;63025;55.472;38.432;2022-10-17T00:05:45;101548.44;;;3.50;74.29
74552;BME280;63025;55.472;38.432;2022-10-17T00:08:12;101549.84;;;3.54;74.23
74552;BME280;63025;55.472;38.432;2022-10-17T00:10:39;101543.84;;;3.52;74.42
74552;BME280;63025;55.472;38.432;2022-10-17T00:13:06;101539.50;;;3.51;74.34
74552;BME280;63025;55.472;38.432;2022-10-17T00:15:32;101544.81;;;3.51;74.26
74552;BME280;63025;55.472;38.432;2022-10-17T00:17:58;101546.63;;;3.51;74.25
74552;BME280;63025;55.472;38.432;2022-10-17T00:20:24;101547.59;;;3.50;74.34
74552;BME280;63025;55.472;38.432;2022-10-17T00:22:50;101548.69;;;3.47;74.13
74552;BME280;63025;55.472;38.432;2022-10-17T00:25:16;101552.31;;;3.46;73.98
74552;BME280;63025;55.472;38.432;2022-10-17T00:27:42;101547.09;;;3.45;74.13
74552;BME280;63025;55.472;38.432;2022-10-17T00:30:12;101550.16;;;3.40;74.01
74552;BME280;63025;55.472;38.432;2022-10-17T00:32:38;101535.44;;;3.36;74.34
74552;BME280;63025;55.472;38.432;2022-10-17T00:35:05;101529.50;;;3.32;74.55
74552;BME280;63025;55.472;38.432;2022-10-17T00:37:32;101534.25;;;3.29;74.77
74552;BME280;63025;55.472;38.432;2022-10-17T00:39:58;101530.16;;;3.25;75.03
74552;BME280;63025;55.472;38.432;2022-10-17T00:42:25;101531.97;;;3.24;74.41
74552;BME280;63025;55.472;38.432;2022-10-17T00:47:46;101524.97;;;3.23;74.98
74552;BME280;63025;55.472;38.432;2022-10-17T00:50:13;101526.06;;;3.21;74.88
74552;BME280;63025;55.472;38.432;2022-10-17T00:52:40;101519.91;;;3.20;74.47
74552;BME280;63025;55.472;38.432;2022-10-17T00:55:14;101514.00;;;3.17;74.77
74552;BME280;63025;55.472;38.432;2022-10-17T00:57:41;101508.47;;;3.09;74.57
74552;BME280;63025;55.472;38.432;2022-10-17T01:00:12;101515.22;;;3.13;75.12
74552;BME280;63025;55.472;38.432;2022-10-17T01:02:40;101504.59;;;3.13;75.03
74552;BME280;63025;55.472;38.432;2022-10-17T01:05:07;101512.44;;;3.14;75.17
74552;BME280;63025;55.472;38.432;2022-10-17T01:07:34;101512.06;;;3.19;74.95
74552;BME280;63025;55.472;38.432;2022-10-17T01:10:01;101507.59;;;3.19;74.79
74552;BME280;63025;55.472;38.432;2022-10-17T01:13:22;101509.88;;;3.24;74.34
74552;BME280;63025;55.472;38.432;2022-10-17T01:21:05;101482.69;;;3.31;74.56
74552;BME280;63025;55.472;38.432;2022-10-17T01:23:52;101479.50;;;3.38;74.36
74552;BME280;63025;55.472;38.432;2022-10-17T01:26:52;101478.13;;;3.43;73.91
74552;BME280;63025;55.472;38.432;2022-10-17T01:32:19;101470.38;;;3.51;73.87
74552;BME280;63025;55.472;38.432;2022-10-17T01:35:21;101455.97;;;3.54;73.56
74552;BME280;63025;55.472;38.432;2022-10-17T01:38:09;101462.00;;;3.56;73.02
74552;BME280;63025;55.472;38.432;2022-10-17T01:45:44;101450.53;;;3.55;73.73
74552;BME280;63025;55.472;38.432;2022-10-17T01:48:17;101453.19;;;3.55;73.19
74552;BME280;63025;55.472;38.432;2022-10-17T01:51:08;101447.44;;;3.50;73.07
74552;BME280;63025;55.472;38.432;2022-10-17T01:53:44;101447.44;;;3.50;73.52
74552;BME280;63025;55.472;38.432;2022-10-17T01:56:13;101444.78;;;3.50;73.80
74552;BME280;63025;55.472;38.432;2022-10-17T01:58:44;101437.19;;;3.46;73.51
74552;BME280;63025;55.472;38.432;2022-10-17T02:01:12;101439.72;;;3.47;73.72
74552;BME280;63025;55.472;38.432;2022-10-17T02:03:39;101441.53;;;3.47;73.90
74552;BME280;63025;55.472;38.432;2022-10-17T02:06:07;101434.28;;;3.49;73.28
74552;BME280;63025;55.472;38.432;2022-10-17T02:08:46;101432.72;;;3.46;73.84
74552;BME280;63025;55.472;38.432;2022-10-17T02:11:17;101421.09;;;3.47;73.67
74552;BME280;63025;55.472;38.432;2022-10-17T02:17:28;101423.66;;;3.49;73.90
74552;BME280;63025;55.472;38.432;2022-10-17T02:25:11;101420.84;;;3.50;73.75
74552;BME280;63025;55.472;38.432;2022-10-17T02:27:43;101414.81;;;3.48;73.92
74552;BME280;63025;55.472;38.432;2022-10-17T02:35:30;101416.03;;;3.44;73.99
74552;BME280;63025;55.472;38.432;2022-10-17T02:37:58;101408.19;;;3.43;74.40
74552;BME280;63025;55.472;38.432;2022-10-17T02:40:25;101402.88;;;3.43;74.12
74552;BME280;63025;55.472;38.432;2022-10-17T02:42:55;101410.84;;;3.43;74.20
74552;BME280;63025;55.472;38.432;2022-10-17T02:45:23;101391.44;;;3.42;74.12
74552;BME280;63025;55.472;38.432;2022-10-17T02:48:04;101393.94;;;3.44;74.51
74552;BME280;63025;55.472;38.432;2022-10-17T02:50:45;101398.16;;;3.46;74.28
74552;BME280;63025;55.472;38.432;2022-10-17T02:53:19;101390.06;;;3.48;74.13
74552;BME280;63025;55.472;38.432;2022-10-17T02:55:53;101394.28;;;3.50;74.09
74552;BME280;63025;55.472;38.432;2022-10-17T02:58:29;101382.81;;;3.50;74.60
74552;BME280;63025;55.472;38.432;2022-10-17T03:00:57;101383.66;;;3.50;74.75
74552;BME280;63025;55.472;38.432;2022-10-17T03:03:28;101379.06;;;3.52;74.31
74552;BME280;63025;55.472;38.432;2022-10-17T03:05:58;101393.19;;;3.53;74.34
74552;BME280;63025;55.472;38.432;2022-10-17T03:08:25;101383.19;;;3.45;74.19
74552;BME280;63025;55.472;38.432;2022-10-17T03:10:51;101393.03;;;3.54;74.21
74552;BME280;63025;55.472;38.432;2022-10-17T03:13:17;101390.38;;;3.54;74.32
74552;BME280;63025;55.472;38.432;2022-10-17T03:15:44;101393.19;;;3.53;74.33
74552;BME280;63025;55.472;38.432;2022-10-17T03:18:11;101385.34;;;3.51;74.53
74552;BME280;63025;55.472;38.432;2022-10-17T03:20:37;101378.47;;;3.49;74.87
74552;BME280;63025;55.472;38.432;2022-10-17T03:23:02;101376.06;;;3.46;74.11
74552;BME280;63025;55.472;38.432;2022-10-17T03:25:29;101369.06;;;3.45;74.53
74552;BME280;63025;55.472;38.432;2022-10-17T03:27:57;101363.75;;;3.45;74.74
74552;BME280;63025;55.472;38.432;2022-10-17T03:30:25;101363.03;;;3.43;74.91
74552;BME280;63025;55.472;38.432;2022-10-17T03:32:52;101360.13;;;3.46;74.99
74552;BME280;63025;55.472;38.432;2022-10-17T03:35:18;101359.28;;;3.45;74.75
74552;BME280;63025;55.472;38.432;2022-10-17T03:37:47;101361.09;;;3.45;74.41
74552;BME280;63025;55.472;38.432;2022-10-17T03:40:13;101356.19;;;3.40;74.92
74552;BME280;63025;55.472;38.432;2022-10-17T03:42:39;101354.09;;;3.44;75.05
74552;BME280;63025;55.472;38.432;2022-10-17T03:45:06;101351.44;;;3.44;75.13
74552;BME280;63025;55.472;38.432;2022-10-17T03:47:32;101346.09;;;3.44;74.49
74552;BME280;63025;55.472;38.432;2022-10-17T03:49:58;101354.94;;;3.44;74.78
74552;BME280;63025;55.472;38.432;2022-10-17T03:52:24;101347.66;;;3.46;75.24
74552;BME280;63025;55.472;38.432;2022-10-17T03:54:50;101344.88;;;3.48;74.98
74552;BME280;63025;55.472;38.432;2022-10-17T03:57:18;101336.78;;;3.49;74.85
74552;BME280;63025;55.472;38.432;2022-10-17T03:59:44;101332.19;;;3.51;74.80
74552;BME280;63025;55.472;38.432;2022-10-17T04:02:13;101335.28;;;3.56;74.90
74552;BME280;63025;55.472;38.432;2022-10-17T04:04:39;101333.34;;;3.58;75.05
74552;BME280;63025;55.472;38.432;2022-10-17T04:07:06;101329.69;;;3.59;74.18
74552;BME280;63025;55.472;38.432;2022-10-17T04:09:35;101328.44;;;3.63;74.88
74552;BME280;63025;55.472;38.432;2022-10-17T04:12:14;101326.63;;;3.64;74.55
74552;BME280;63025;55.472;38.432;2022-10-17T04:14:40;101320.09;;;3.68;74.79
74552;BME280;63025;55.472;38.432;2022-10-17T04:17:05;101312.94;;;3.68;74.87
74552;BME280;63025;55.472;38.432;2022-10-17T04:19:33;101311.72;;;3.73;74.83
74552;BME280;63025;55.472;38.432;2022-10-17T04:21:59;101317.47;;;3.78;74.44
74552;BME280;63025;55.472;38.432;2022-10-17T04:24:26;101313.56;;;3.82;74.40
74552;BME280;63025;55.472;38.432;2022-10-17T04:27:12;101312.88;;;3.89;74.04
74552;BME280;63025;55.472;38.432;2022-10-17T04:29:42;101312.31;;;3.95;74.31
74552;BME280;63025;55.472;38.432;2022-10-17T04:32:16;101309.16;;;4.01;73.80
74552;BME280;63025;55.472;38.432;2022-10-17T04:34:49;101319.81;;;4.11;73.63
74552;BME280;63025;55.472;38.432;2022-10-17T04:37:17;101315.06;;;4.15;73.33
74552;BME280;63025;55.472;38.432;2022-10-17T04:39:44;101313.09;;;4.17;73.42
74552;BME280;63025;55.472;38.432;2022-10-17T04:42:10;101307.38;;;4.21;73.31
74552;BME280;63025;55.472;38.432;2022-10-17T04:44:36;101310.44;;;4.26;73.04
74552;BME280;63025;55.472;38.432;2022-10-17T04:47:02;101312.69;;;4.31;73.05
74552;BME280;63025;55.472;38.432;2022-10-17T04:49:29;101314.81;;;4.37;72.77
74552;BME280;63025;55.472;38.432;2022-10-17T04:52:04;101300.50;;;4.38;72.67
74552;BME280;63025;55.472;38.432;2022-10-17T04:54:42;101299.00;;;4.45;72.51
74552;BME280;63025;55.472;38.432;2022-10-17T04:57:09;101289.47;;;4.52;72.37
74552;BME280;63025;55.472;38.432;2022-10-17T04:59:35;101306.41;;;4.61;72.26
74552;BME280;63025;55.472;38.432;2022-10-17T05:02:20;101293.38;;;4.67;71.79
74552;BME280;63025;55.472;38.432;2022-10-17T05:04:46;101303.22;;;4.76;71.77
74552;BME280;63025;55.472;38.432;2022-10-17T05:07:13;101288.34;;;4.84;71.60
74552;BME280;63025;55.472;38.432;2022-10-17T05:09:57;101280.59;;;4.90;71.29
74552;BME280;63025;55.472;38.432;2022-10-17T05:12:24;101274.03;;;4.94;71.02
74552;BME280;63025;55.472;38.432;2022-10-17T05:14:50;101279.75;;;4.99;71.12
74552;BME280;63025;55.472;38.432;2022-10-17T05:17:16;101274.72;;;5.06;71.06
74552;BME280;63025;55.472;38.432;2022-10-17T05:19:42;101281.41;;;5.10;70.76
74552;BME280;63025;55.472;38.432;2022-10-17T05:22:08;101278.31;;;5.14;70.45
74552;BME280;63025;55.472;38.432;2022-10-17T05:24:34;101259.94;;;5.11;70.42
74552;BME280;63025;55.472;38.432;2022-10-17T05:27:00;101280.13;;;5.24;70.23
74552;BME280;63025;55.472;38.432;2022-10-17T05:29:26;101267.88;;;5.31;69.74
74552;BME280;63025;55.472;38.432;2022-10-17T05:32:01;101259.44;;;5.45;69.71
74552;BME280;63025;55.472;38.432;2022-10-17T05:34:27;101257.28;;;5.58;69.39
74552;BME280;63025;55.472;38.432;2022-10-17T05:36:53;101257.38;;;5.66;69.30
74552;BME280;63025;55.472;38.432;2022-10-17T05:39:21;101250.06;;;5.68;68.67
74552;BME280;63025;55.472;38.432;2022-10-17T05:41:49;101243.56;;;5.80;68.64
74552;BME280;63025;55.472;38.432;2022-10-17T05:44:17;101245.91;;;5.83;68.31
74552;BME280;63025;55.472;38.432;2022-10-17T05:46:48;101241.00;;;5.88;68.57
74552;BME280;63025;55.472;38.432;2022-10-17T05:49:14;101232.00;;;5.89;68.38
74552;BME280;63025;55.472;38.432;2022-10-17T05:51:41;101245.22;;;5.91;68.20
74552;BME280;63025;55.472;38.432;2022-10-17T05:54:07;101234.69;;;5.89;68.17
74552;BME280;63025;55.472;38.432;2022-10-17T05:56:35;101238.84;;;5.92;67.88
74552;BME280;63025;55.472;38.432;2022-10-17T05:59:01;101231.41;;;5.96;67.72
74552;BME280;63025;55.472;38.432;2022-10-17T06:01:41;101237.56;;;5.96;67.87
74552;BME280;63025;55.472;38.432;2022-10-17T06:04:08;101228.72;;;5.96;67.32
74552;BME280;63025;55.472;38.432;2022-10-17T06:06:36;101229.78;;;6.03;67.20
74552;BME280;63025;55.472;38.432;2022-10-17T06:09:03;101229.59;;;6.14;67.29
74552;BME280;63025;55.472;38.432;2022-10-17T06:11:34;101240.72;;;6.27;67.18
74552;BME280;63025;55.472;38.432;2022-10-17T06:14:00;101240.81;;;6.35;66.75
74552;BME280;63025;55.472;38.432;2022-10-17T06:16:28;101224.94;;;6.34;66.34
74552;BME280;63025;55.472;38.432;2022-10-17T06:18:54;101222.56;;;6.48;66.36
74552;BME280;63025;55.472;38.432;2022-10-17T06:21:25;101230.97;;;6.53;66.07
74552;BME280;63025;55.472;38.432;2022-10-17T06:23:56;101217.97;;;6.58;65.77
74552;BME280;63025;55.472;38.432;2022-10-17T06:26:31;101217.03;;;6.68;65.86
74552;BME280;63025;55.472;38.432;2022-10-17T06:28:57;101222.25;;;6.69;66.01
74552;BME280;63025;55.472;38.432;2022-10-17T06:31:26;101215.59;;;6.73;65.27
74552;BME280;63025;55.472;38.432;2022-10-17T06:33:52;101204.66;;;6.84;65.26
74552;BME280;63025;55.472;38.432;2022-10-17T06:36:18;101205.06;;;6.97;64.65
74552;BME280;63025;55.472;38.432;2022-10-17T06:38:45;101200.59;;;7.32;64.01
74552;BME280;63025;55.472;38.432;2022-10-17T06:41:19;101196.63;;;8.02;62.98
74552;BME280;63025;55.472;38.432;2022-10-17T06:43:45;101200.56;;;8.40;61.68
74552;BME280;63025;55.472;38.432;2022-10-17T06:46:44;101185.94;;;8.83;60.42
74552;BME280;63025;55.472;38.432;2022-10-17T06:49:13;101167.47;;;9.05;59.23
74552;BME280;63025;55.472;38.432;2022-10-17T06:51:46;101182.53;;;9.22;59.11
74552;BME280;63025;55.472;38.432;2022-10-17T06:54:14;101169.00;;;9.46;58.16
74552;BME280;63025;55.472;38.432;2022-10-17T07:18:16;101166.47;;;9.06;57.13
74552;BME280;63025;55.472;38.432;2022-10-17T07:20:43;101154.78;;;8.99;57.45
74552;BME280;63025;55.472;38.432;2022-10-17T07:23:09;101149.75;;;8.96;58.21
74552;BME280;63025;55.472;38.432;2022-10-17T07:25:35;101146.38;;;8.94;58.33
74552;BME280;63025;55.472;38.432;2022-10-17T07:28:05;101137.06;;;8.81;58.08
74552;BME280;63025;55.472;38.432;2022-10-17T07:30:32;101143.41;;;8.72;58.59
74552;BME280;63025;55.472;38.432;2022-10-17T07:33:16;101138.25;;;8.71;58.37
74552;BME280;63025;55.472;38.432;2022-10-17T07:35:43;101148.13;;;8.70;58.67
74552;BME280;63025;55.472;38.432;2022-10-17T07:38:09;101145.78;;;8.67;58.55
74552;BME280;63025;55.472;38.432;2022-10-17T07:40:36;101148.97;;;8.63;58.51
74552;BME280;63025;55.472;38.432;2022-10-17T07:43:02;101141.44;;;8.58;58.86
74552;BME280;63025;55.472;38.432;2022-10-17T07:45:28;101135.44;;;8.48;58.73
74552;BME280;63025;55.472;38.432;2022-10-17T07:47:56;101135.28;;;8.50;59.38
74552;BME280;63025;55.472;38.432;2022-10-17T07:50:23;101130.91;;;8.49;59.12
74552;BME280;63025;55.472;38.432;2022-10-17T07:52:49;101137.75;;;8.43;58.95
74552;BME280;63025;55.472;38.432;2022-10-17T07:55:15;101132.91;;;8.46;59.34
74552;BME280;63025;55.472;38.432;2022-10-17T07:57:41;101114.47;;;8.52;59.02
74552;BME280;63025;55.472;38.432;2022-10-17T08:00:07;101104.59;;;8.52;59.17
74552;BME280;63025;55.472;38.432;2022-10-17T08:02:38;101099.41;;;8.59;59.15
74552;BME280;63025;55.472;38.432;2022-10-17T08:05:04;101095.22;;;8.56;58.81
74552;BME280;63025;55.472;38.432;2022-10-17T08:07:31;101094.38;;;8.56;58.69
74552;BME280;63025;55.472;38.432;2022-10-17T08:09:56;101096.06;;;8.57;58.57
74552;BME280;63025;55.472;38.432;2022-10-17T08:12:22;101089.69;;;8.66;58.85
74552;BME280;63025;55.472;38.432;2022-10-17T08:14:50;101092.53;;;8.64;58.52
74552;BME280;63025;55.472;38.432;2022-10-17T08:17:16;101102.06;;;8.67;58.95
74552;BME280;63025;55.472;38.432;2022-10-17T08:19:42;101100.06;;;8.69;58.41
74552;BME280;63025;55.472;38.432;2022-10-17T08:22:07;101108.41;;;8.74;58.70
74552;BME280;63025;55.472;38.432;2022-10-17T08:24:34;101101.56;;;8.71;58.66
74552;BME280;63025;55.472;38.432;2022-10-17T08:26:59;101100.72;;;8.71;58.90
74552;BME280;63025;55.472;38.432;2022-10-17T08:29:26;101092.88;;;8.61;60.28
74552;BME280;63025;55.472;38.432;2022-10-17T08:31:52;101097.41;;;8.53;61.71
74552;BME280;63025;55.472;38.432;2022-10-17T08:34:18;101089.38;;;8.44;62.36
74552;BME280;63025;55.472;38.432;2022-10-17T08:36:43;101098.25;;;8.45;62.57
74552;BME280;63025;55.472;38.432;2022-10-17T08:39:09;101081.84;;;8.48;63.62
74552;BME280;63025;55.472;38.432;2022-10-17T08:44:59;101078.84;;;8.43;63.27
74552;BME280;63025;55.472;38.432;2022-10-17T08:47:56;101093.59;;;8.39;62.81
74552;BME280;63025;55.472;38.432;2022-10-17T08:50:43;101094.22;;;8.41;62.44
74552;BME280;63025;55.472;38.432;2022-10-17T08:53:16;101082.50;;;8.42;62.92
74552;BME280;63025;55.472;38.432;2022-10-17T08:55:49;101078.00;;;8.42;63.70
74552;BME280;63025;55.472;38.432;2022-10-17T08:58:20;101063.75;;;8.42;63.82
74552;BME280;63025;55.472;38.432;2022-10-17T09:06:26;101051.03;;;8.44;65.07
74552;BME280;63025;55.472;38.432;2022-10-17T09:14:49;101046.69;;;8.51;65.09
74552;BME280;63025;55.472;38.432;2022-10-17T09:22:59;101052.72;;;8.45;65.35
74552;BME280;63025;55.472;38.432;2022-10-17T09:25:27;101047.50;;;8.52;65.35
74552;BME280;63025;55.472;38.432;2022-10-17T09:28:05;101053.06;;;8.50;65.70
74552;BME280;63025;55.472;38.432;2022-10-17T09:30:42;101061.09;;;8.50;65.36
74552;BME280;63025;55.472;38.432;2022-10-17T09:33:17;101062.44;;;8.46;65.23
74552;BME280;63025;55.472;38.432;2022-10-17T09:35:44;101057.06;;;8.46;65.37
74552;BME280;63025;55.472;38.432;2022-10-17T09:38:19;101057.41;;;8.43;65.40
74552;BME280;63025;55.472;38.432;2022-10-17T09:40:58;101037.16;;;8.40;66.75
74552;BME280;63025;55.472;38.432;2022-10-17T09:43:25;101034.31;;;8.26;67.58
74552;BME280;63025;55.472;38.432;2022-10-17T09:46:36;101021.59;;;8.11;67.90
74552;BME280;63025;55.472;38.432;2022-10-17T09:49:16;101040.69;;;8.08;68.19
74552;BME280;63025;55.472;38.432;2022-10-17T09:51:43;101046.69;;;8.10;68.74
74552;BME280;63025;55.472;38.432;2022-10-17T09:54:48;101056.56;;;8.10;68.67
74552;BME280;63025;55.472;38.432;2022-10-17T09:57:16;101055.25;;;8.06;69.44
74552;BME280;63025;55.472;38.432;2022-10-17T09:59:56;101050.56;;;8.00;70.42
74552;BME280;63025;55.472;38.432;2022-10-17T10:02:24;101058.44;;;7.93;71.04
74552;BME280;63025;55.472;38.432;2022-10-17T10:07:19;101048.06;;;7.82;73.03
74552;BME280;63025;55.472;38.432;2022-10-17T10:09:47;101044.38;;;7.75;73.98
74552;BME280;63025;55.472;38.432;2022-10-17T10:12:22;101047.22;;;7.65;74.70
74552;BME280;63025;55.472;38.432;2022-10-17T10:14:48;101036.31;;;7.59;75.74
74552;BME280;63025;55.472;38.432;2022-10-17T10:28:36;101027.63;;;7.41;77.81
74552;BME280;63025;55.472;38.432;2022-10-17T10:31:04;101014.25;;;7.41;78.39
74552;BME280;63025;55.472;38.432;2022-10-17T10:33:33;101006.06;;;7.42;78.05
74552;BME280;63025;55.472;38.432;2022-10-17T10:36:02;101007.22;;;7.40;78.54
74552;BME280;63025;55.472;38.432;2022-10-17T10:38:30;100997.88;;;7.35;78.96
74552;BME280;63025;55.472;38.432;2022-10-17T10:41:08;101001.19;;;7.37;78.94
74552;BME280;63025;55.472;38.432;2022-10-17T10:43:43;101010.88;;;7.30;79.35
74552;BME280;63025;55.472;38.432;2022-10-17T10:46:26;101013.22;;;7.25;79.37
74552;BME280;63025;55.472;38.432;2022-10-17T10:48:59;101012.41;;;7.25;79.87
74552;BME280;63025;55.472;38.432;2022-10-17T10:51:33;101008.72;;;7.26;79.68
74552;BME280;63025;55.472;38.432;2022-10-17T10:54:11;101001.84;;;7.23;79.61
74552;BME280;63025;55.472;38.432;2022-10-17T10:56:43;100990.84;;;7.26;80.08
74552;BME280;63025;55.472;38.432;2022-10-17T10:59:21;101000.88;;;7.24;80.06
74552;BME280;63025;55.472;38.432;2022-10-17T11:05:11;100988.81;;;7.20;80.76
74552;BME280;63025;55.472;38.432;2022-10-17T11:07:46;100982.78;;;7.18;80.87
74552;BME280;63025;55.472;38.432;2022-10-17T11:13:22;100962.25;;;7.27;80.65
74552;BME280;63025;55.472;38.432;2022-10-17T11:15:56;100966.78;;;7.26;80.57
74552;BME280;63025;55.472;38.432;2022-10-17T11:21:20;100962.75;;;7.38;79.87
74552;BME280;63025;55.472;38.432;2022-10-17T11:23:55;100968.09;;;7.38;80.13
74552;BME280;63025;55.472;38.432;2022-10-17T11:26:28;100966.44;;;7.37;79.92
74552;BME280;63025;55.472;38.432;2022-10-17T11:28:58;100956.75;;;7.36;79.93
74552;BME280;63025;55.472;38.432;2022-10-17T11:31:38;100953.25;;;7.36;79.95
74552;BME280;63025;55.472;38.432;2022-10-17T11:34:13;100956.56;;;7.38;80.02
74552;BME280;63025;55.472;38.432;2022-10-17T11:36:46;100946.72;;;7.38;79.89
74552;BME280;63025;55.472;38.432;2022-10-17T11:39:23;100950.75;;;7.43;79.32
74552;BME280;63025;55.472;38.432;2022-10-17T11:42:03;100941.56;;;7.45;79.19
74552;BME280;63025;55.472;38.432;2022-10-17T11:44:52;100933.53;;;7.45;79.42
74552;BME280;63025;55.472;38.432;2022-10-17T11:47:44;100940.88;;;7.43;79.87
74552;BME280;63025;55.472;38.432;2022-10-17T11:50:36;100940.19;;;7.41;79.79
74552;BME280;63025;55.472;38.432;2022-10-17T11:55:35;100926.00;;;7.41;79.42
74552;BME280;63025;55.472;38.432;2022-10-17T12:03:56;100933.34;;;7.55;79.83
74552;BME280;63025;55.472;38.432;2022-10-17T12:06:56;100923.81;;;7.52;79.20
74552;BME280;63025;55.472;38.432;2022-10-17T12:09:28;100927.16;;;7.54;79.61
74552;BME280;63025;55.472;38.432;2022-10-17T12:11:59;100933.34;;;7.55;79.13
74552;BME280;63025;55.472;38.432;2022-10-17T12:14:44;100930.69;;;7.55;79.45
74552;BME280;63025;55.472;38.432;2022-10-17T12:17:34;100928.69;;;7.57;79.36
74552;BME280;63025;55.472;38.432;2022-10-17T12:23:39;100923.34;;;7.57;79.17
74552;BME280;63025;55.472;38.432;2022-10-17T12:25:51;100917.97;;;7.57;79.26
74552;BME280;63025;55.472;38.432;2022-10-17T12:31:04;100917.13;;;7.64;79.39
74552;BME280;63025;55.472;38.432;2022-10-17T12:33:48;100910.09;;;7.63;78.82
74552;BME280;63025;55.472;38.432;2022-10-17T12:54:50;100887.22;;;7.53;79.76
74552;BME280;63025;55.472;38.432;2022-10-17T12:57:23;100890.56;;;7.55;79.83
74552;BME280;63025;55.472;38.432;2022-10-17T12:59:51;100889.19;;;7.59;79.75
74552;BME280;63025;55.472;38.432;2022-10-17T13:02:23;100887.34;;;7.59;79.94
74552;BME280;63025;55.472;38.432;2022-10-17T13:05:04;100884.53;;;7.61;79.89
74552;BME280;63025;55.472;38.432;2022-10-17T13:07:33;100884.53;;;7.61;79.95
74552;BME280;63025;55.472;38.432;2022-10-17T13:10:00;100873.16;;;7.59;80.01
74552;BME280;63025;55.472;38.432;2022-10-17T13:12:33;100882.19;;;7.58;80.30
74552;BME280;63025;55.472;38.432;2022-10-17T13:15:04;100885.19;;;7.63;80.26
74552;BME280;63025;55.472;38.432;2022-10-17T13:17:31;100888.53;;;7.65;80.03
74552;BME280;63025;55.472;38.432;2022-10-17T13:19:59;100890.22;;;7.66;79.91
74552;BME280;63025;55.472;38.432;2022-10-17T13:22:30;100885.19;;;7.63;80.13
74552;BME280;63025;55.472;38.432;2022-10-17T13:25:17;100891.22;;;7.65;80.15
74552;BME280;63025;55.472;38.432;2022-10-17T13:27:44;100890.38;;;7.64;80.46
74552;BME280;63025;55.472;38.432;2022-10-17T13:30:30;100878.50;;;7.67;80.51
74552;BME280;63025;55.472;38.432;2022-10-17T13:32:56;100886.69;;;7.65;80.58
74552;BME280;63025;55.472;38.432;2022-10-17T13:35:26;100883.84;;;7.67;80.21
74552;BME280;63025;55.472;38.432;2022-10-17T13:37:52;100876.84;;;7.66;80.44
74552;BME280;63025;55.472;38.432;2022-10-17T13:40:26;100856.44;;;7.65;80.97
74552;BME280;63025;55.472;38.432;2022-10-17T13:42:55;100862.44;;;7.67;80.69
74552;BME280;63025;55.472;38.432;2022-10-17T13:45:30;100879.16;;;7.69;80.60
74552;BME280;63025;55.472;38.432;2022-10-17T13:48:05;100893.56;;;7.68;80.70
74552;BME280;63025;55.472;38.432;2022-10-17T13:50:37;100896.22;;;7.68;80.79
74552;BME280;63025;55.472;38.432;2022-10-17T13:55:55;100912.59;;;7.73;80.71
74552;BME280;63025;55.472;38.432;2022-10-17T13:58:22;100935.84;;;7.72;81.33
74552;BME280;63025;55.472;38.432;2022-10-17T14:00:48;100933.84;;;7.74;81.18
74552;BME280;63025;55.472;38.432;2022-10-17T14:03:20;100930.31;;;7.74;80.82
74552;BME280;63025;55.472;38.432;2022-10-17T14:08:50;100921.13;;;7.77;80.85
74552;BME280;63025;55.472;38.432;2022-10-17T14:11:38;100929.16;;;7.77;80.40
74552;BME280;63025;55.472;38.432;2022-10-17T14:14:13;100927.31;;;7.77;80.71
74552;BME280;63025;55.472;38.432;2022-10-17T14:16:41;100929.31;;;7.75;80.63
74552;BME280;63025;55.472;38.432;2022-10-17T14:19:26;100911.59;;;7.74;80.52
74552;BME280;63025;55.472;38.432;2022-10-17T14:22:16;100923.13;;;7.74;80.76
74552;BME280;63025;55.472;38.432;2022-10-17T14:24:43;100928.16;;;7.78;80.82
74552;BME280;63025;55.472;38.432;2022-10-17T14:27:34;100938.03;;;7.77;80.86
74552;BME280;63025;55.472;38.432;2022-10-17T14:32:57;100931.84;;;7.77;81.02
74552;BME280;63025;55.472;38.432;2022-10-17T14:35:23;100932.00;;;7.75;81.26
74552;BME280;63025;55.472;38.432;2022-10-17T14:37:51;100936.34;;;7.76;81.48
74552;BME280;63025;55.472;38.432;2022-10-17T14:40:19;100929.31;;;7.75;81.12
74552;BME280;63025;55.472;38.432;2022-10-17T14:42:47;100917.28;;;7.71;81.43
74552;BME280;63025;55.472;38.432;2022-10-17T14:45:37;100922.28;;;7.74;81.74
74552;BME280;63025;55.472;38.432;2022-10-17T14:48:20;100927.66;;;7.74;81.45
74552;BME280;63025;55.472;38.432;2022-10-17T14:51:09;100925.97;;;7.73;81.88
74552;BME280;63025;55.472;38.432;2022-10-17T14:53:35;100924.97;;;7.74;82.14
74552;BME280;63025;55.472;38.432;2022-10-17T14:56:23;100919.63;;;7.74;81.97
74552;BME280;63025;55.472;38.432;2022-10-17T14:58:49;100924.31;;;7.72;82.01
74552;BME280;63025;55.472;38.432;2022-10-17T15:01:16;100923.47;;;7.71;81.67
74552;BME280;63025;55.472;38.432;2022-10-17T15:03:42;100924.13;;;7.73;81.70
74552;BME280;63025;55.472;38.432;2022-10-17T15:06:32;100934.50;;;7.77;82.17
74552;BME280;63025;55.472;38.432;2022-10-17T15:08:58;100923.31;;;7.73;81.75
74552;BME280;63025;55.472;38.432;2022-10-17T15:11:24;100931.31;;;7.73;81.88
74552;BME280;63025;55.472;38.432;2022-10-17T15:13:50;100937.00;;;7.70;81.79
74552;BME280;63025;55.472;38.432;2022-10-17T15:18:45;100939.84;;;7.68;82.31
74552;BME280;63025;55.472;38.432;2022-10-17T15:21:13;100925.81;;;7.66;82.49
74552;BME280;63025;55.472;38.432;2022-10-17T15:23:39;100919.63;;;7.66;82.00
74552;BME280;63025;55.472;38.432;2022-10-17T15:26:14;100918.81;;;7.65;81.93
74552;BME280;63025;55.472;38.432;2022-10-17T15:28:40;100912.28;;;7.60;82.70
74552;BME280;63025;55.472;38.432;2022-10-17T15:31:10;100918.31;;;7.54;82.33